Time;durP1;ratioP1;P1;durP2;ratioP2;P2;SDS_P1;SDS_P2;PMS_P1;PMS_P2;Temp;Humidity;BMP_temperature;BMP_pressure;BME280_temperature;BME280_humidity;BME280_pressure;Samples;Min_cycle;Max_cycle;Signal;HPM_P1;HPM_P2
2023/01/31 00:01:39;;;;;;;0.22;0.22;;;;;;;5.00;64.92;99531.75;4379554;32;34025;-84
2023/01/31 00:04:10;;;;;;;0.17;0.17;;;;;;;5.05;64.60;99519.41;4372148;32;32633;-84
2023/01/31 00:06:41;;;;;;;0.05;0.05;;;;;;;4.79;65.11;99520.91;4372635;32;33853;-84
2023/01/31 00:09:10;;;;;;;0.62;0.62;;;;;;;5.01;64.39;99518.63;4376744;32;32920;-84
2023/01/31 00:11:38;;;;;;;0.00;0.00;;;;;;;5.04;64.07;99507.25;4368392;32;33077;-84
2023/01/31 00:14:07;;;;;;;0.00;0.00;;;;;;;5.28;63.04;99509.22;4382894;32;33928;-84
2023/01/31 00:16:35;;;;;;;0.40;0.40;;;;;;;5.16;63.38;99512.13;4382180;32;32509;-84
2023/01/31 00:19:03;;;;;;;0.00;0.00;;;;;;;5.24;62.94;99512.81;4397326;32;33921;-84
2023/01/31 00:21:31;;;;;;;1.58;0.52;;;;;;;5.02;63.58;99504.63;4369988;32;33809;-84
2023/01/31 00:23:59;;;;;;;0.00;0.00;;;;;;;5.09;63.19;99518.44;4369562;32;33548;-84
2023/01/31 00:26:32;;;;;;;0.65;0.65;;;;;;;5.17;62.85;99515.59;4378054;32;33870;-84
2023/01/31 00:29:02;;;;;;;0.00;0.00;;;;;;;5.51;61.49;99529.53;4376111;32;33080;-84
2023/01/31 00:31:32;;;;;;;0.00;0.00;;;;;;;5.29;62.18;99539.72;4374575;32;33867;-84
2023/01/31 00:34:01;;;;;;;2.00;1.60;;;;;;;5.72;60.64;99543.78;4381583;32;33095;-84
2023/01/31 00:36:33;;;;;;;0.10;0.08;;;;;;;5.84;59.83;99527.72;4374590;32;32832;-84
2023/01/31 00:39:03;;;;;;;0.15;0.15;;;;;;;5.49;61.00;99546.19;4370411;32;33861;-84
2023/01/31 00:41:33;;;;;;;0.00;0.00;;;;;;;5.23;61.25;99545.13;4371222;32;33877;-84
2023/01/31 00:44:04;;;;;;;0.43;0.30;;;;;;;5.48;61.06;99536.59;4378104;32;33995;-84
2023/01/31 00:46:32;;;;;;;0.00;0.00;;;;;;;5.64;60.77;99536.13;4364219;32;32872;-84
2023/01/31 00:49:00;;;;;;;0.00;0.00;;;;;;;6.08;59.25;99522.72;4369994;32;33632;-84
2023/01/31 00:51:28;;;;;;;0.00;0.00;;;;;;;5.99;58.76;99521.22;4359323;32;33044;-84
2023/01/31 00:53:56;;;;;;;0.00;0.00;;;;;;;5.59;60.06;99532.78;4369379;32;32215;-84
2023/01/31 00:56:24;;;;;;;0.00;0.00;;;;;;;5.40;60.84;99536.81;4370870;32;33522;-84
2023/01/31 00:58:52;;;;;;;0.17;0.17;;;;;;;5.68;59.82;99542.16;4355158;32;33605;-84
2023/01/31 01:01:25;;;;;;;0.32;0.32;;;;;;;5.58;59.65;99535.44;4372700;32;33756;-84
2023/01/31 01:03:55;;;;;;;0.00;0.00;;;;;;;5.58;59.88;99522.34;4375933;32;33537;-84
2023/01/31 01:06:23;;;;;;;0.10;0.10;;;;;;;5.95;58.39;99510.88;4376505;32;33442;-84
2023/01/31 01:08:51;;;;;;;0.00;0.00;;;;;;;5.92;58.17;99521.44;4361573;32;33494;-84
2023/01/31 01:11:21;;;;;;;0.05;0.05;;;;;;;5.88;58.29;99528.47;4394222;32;33776;-84
2023/01/31 01:13:49;;;;;;;0.00;0.00;;;;;;;5.68;58.59;99528.19;4370717;32;33915;-83
2023/01/31 01:16:22;;;;;;;0.00;0.00;;;;;;;5.67;58.77;99537.81;4357962;32;34535;-83
2023/01/31 01:18:53;;;;;;;0.10;0.10;;;;;;;5.70;58.60;99524.66;4378855;32;34436;-83
2023/01/31 01:21:26;;;;;;;0.20;0.20;;;;;;;5.49;59.26;99530.47;4390813;32;34176;-84
2023/01/31 01:23:59;;;;;;;0.00;0.00;;;;;;;5.73;58.64;99521.91;4378736;32;32899;-84
2023/01/31 01:26:29;;;;;;;0.00;0.00;;;;;;;5.79;58.11;99524.38;4358161;32;32736;-83
2023/01/31 01:28:59;;;;;;;1.35;0.75;;;;;;;5.57;58.71;99531.97;4374283;32;32603;-84
2023/01/31 01:31:31;;;;;;;0.00;0.00;;;;;;;5.74;58.24;99530.63;4372186;32;33739;-83
2023/01/31 01:34:19;;;;;;;0.00;0.00;;;;;;;5.66;58.53;99533.50;4376153;32;33539;-83
2023/01/31 01:36:47;;;;;;;0.00;0.00;;;;;;;5.72;58.16;99543.78;4385412;32;34520;-83
2023/01/31 01:39:15;;;;;;;0.10;0.10;;;;;;;5.64;58.37;99551.84;4381754;32;33289;-84
2023/01/31 01:41:43;;;;;;;0.47;0.47;;;;;;;5.71;58.12;99546.47;4395155;32;33894;-84
2023/01/31 01:44:48;;;;;;;0.00;0.00;;;;;;;5.65;58.27;99555.34;4370044;32;33102;-84
2023/01/31 01:47:16;;;;;;;0.00;0.00;;;;;;;5.70;57.79;99553.47;4383437;32;34534;-83
2023/01/31 01:49:46;;;;;;;0.00;0.00;;;;;;;5.99;57.07;99568.38;4394269;32;32297;-84
2023/01/31 01:52:15;;;;;;;0.00;0.00;;;;;;;5.72;58.25;99569.97;4355118;32;33672;-83
2023/01/31 01:54:51;;;;;;;0.00;0.00;;;;;;;5.69;58.19;99580.53;4371939;32;34203;-83
2023/01/31 01:57:23;;;;;;;1.27;0.62;;;;;;;5.98;57.34;99571.91;4358887;32;35486;-83
2023/01/31 02:00:03;;;;;;;0.00;0.00;;;;;;;6.04;56.91;99568.25;4371362;32;33923;-84
2023/01/31 02:02:42;;;;;;;1.02;0.95;;;;;;;5.50;58.15;99572.31;4370156;32;33622;-84
2023/01/31 02:05:13;;;;;;;0.00;0.00;;;;;;;5.55;58.31;99578.28;4384036;32;32955;-83
2023/01/31 02:07:41;;;;;;;0.00;0.00;;;;;;;5.58;58.08;99572.13;4368741;32;33246;-84
2023/01/31 02:10:16;;;;;;;0.00;0.00;;;;;;;5.38;58.64;99575.28;4369422;32;33709;-84
2023/01/31 02:12:45;;;;;;;0.00;0.00;;;;;;;5.40;59.06;99582.16;4370199;32;34881;-84
2023/01/31 02:15:13;;;;;;;0.43;0.43;;;;;;;5.70;57.90;99586.62;4365443;32;33857;-84
2023/01/31 02:17:40;;;;;;;12.65;2.12;;;;;;;6.15;56.24;99581.91;4370365;32;33823;-83
2023/01/31 02:20:27;;;;;;;0.00;0.00;;;;;;;5.54;58.06;99602.75;4372511;32;33941;-83
2023/01/31 02:23:17;;;;;;;0.00;0.00;;;;;;;5.76;57.13;99597.81;4376572;32;33408;-83
2023/01/31 02:25:48;;;;;;;0.10;0.10;;;;;;;5.61;57.58;99608.72;4366560;32;31939;-83
2023/01/31 02:28:53;;;;;;;3.30;1.33;;;;;;;5.51;58.18;99609.88;4380137;32;33120;-85
2023/01/31 02:31:41;;;;;;;0.00;0.00;;;;;;;5.65;58.03;99608.59;4382702;32;33719;-84
2023/01/31 02:34:29;;;;;;;0.00;0.00;;;;;;;5.79;57.77;99618.72;4394657;32;34229;-84
2023/01/31 02:37:16;;;;;;;0.00;0.00;;;;;;;5.88;56.88;99618.44;4381618;32;33357;-84
2023/01/31 02:39:50;;;;;;;1.85;0.98;;;;;;;6.18;56.07;99622.91;4384365;32;33519;-84
2023/01/31 02:42:27;;;;;;;0.00;0.00;;;;;;;6.08;56.23;99625.78;4383849;32;32899;-84
2023/01/31 02:45:05;;;;;;;0.00;0.00;;;;;;;5.67;57.67;99645.22;4370799;32;33678;-84
2023/01/31 02:47:55;;;;;;;0.00;0.00;;;;;;;5.94;56.61;99637.56;4372550;32;32827;-84
2023/01/31 02:50:28;;;;;;;0.00;0.00;;;;;;;6.14;56.10;99643.09;4373705;32;33785;-84
2023/01/31 02:53:15;;;;;;;0.32;0.32;;;;;;;6.55;54.76;99647.16;4397000;32;33921;-84
2023/01/31 02:58:39;;;;;;;0.10;0.10;;;;;;;6.26;55.88;99661.09;4380692;32;33571;-85
2023/01/31 03:01:09;;;;;;;0.00;0.00;;;;;;;6.10;56.51;99662.44;4379916;32;34562;-85
2023/01/31 03:03:38;;;;;;;0.00;0.00;;;;;;;6.33;55.80;99667.91;4377678;32;33751;-85
2023/01/31 03:06:09;;;;;;;0.00;0.00;;;;;;;6.48;55.30;99670.97;4370839;32;33717;-85
2023/01/31 03:08:40;;;;;;;0.00;0.00;;;;;;;6.26;55.94;99671.56;4382272;32;34295;-84
2023/01/31 03:11:08;;;;;;;0.00;0.00;;;;;;;6.30;55.65;99669.75;4362257;32;32493;-84
2023/01/31 03:14:04;;;;;;;0.00;0.00;;;;;;;6.14;55.95;99669.31;4378790;32;33989;-84
2023/01/31 03:19:34;;;;;;;0.00;0.00;;;;;;;6.13;56.09;99670.22;4380736;32;33547;-83
2023/01/31 03:22:15;;;;;;;0.05;0.05;;;;;;;5.94;56.91;99679.50;4378657;32;34446;-83
2023/01/31 03:24:46;;;;;;;0.00;0.00;;;;;;;5.71;57.41;99688.78;4390228;32;32937;-83
2023/01/31 03:27:14;;;;;;;0.08;0.08;;;;;;;5.93;56.54;99693.47;4354039;32;33033;-82
2023/01/31 03:29:42;;;;;;;0.00;0.00;;;;;;;6.02;56.40;99695.84;4358763;32;32958;-83
2023/01/31 03:32:19;;;;;;;1.00;0.70;;;;;;;6.35;55.22;99683.56;4365637;32;33939;-83
2023/01/31 03:34:47;;;;;;;0.00;0.00;;;;;;;6.13;55.85;99675.47;4378507;32;33070;-83
2023/01/31 03:37:21;;;;;;;0.10;0.10;;;;;;;6.03;56.03;99687.06;4374124;32;32912;-83
2023/01/31 03:40:04;;;;;;;0.10;0.10;;;;;;;5.84;56.43;99690.19;4378765;32;33447;-83
2023/01/31 03:42:43;;;;;;;0.60;0.60;;;;;;;5.51;57.62;99694.53;4388927;32;33875;-83
2023/01/31 03:45:15;;;;;;;0.00;0.00;;;;;;;5.97;56.34;99695.13;4389536;32;33956;-83
2023/01/31 03:47:46;;;;;;;0.00;0.00;;;;;;;5.99;56.13;99685.47;4378186;32;32887;-83
2023/01/31 03:50:24;;;;;;;0.55;0.47;;;;;;;6.12;55.71;99695.59;4378572;32;34376;-83
2023/01/31 03:53:15;;;;;;;0.10;0.10;;;;;;;6.26;55.42;99696.94;4378486;32;33684;-83
2023/01/31 03:55:57;;;;;;;0.00;0.00;;;;;;;6.16;55.47;99702.44;4365883;32;32992;-83
2023/01/31 03:58:27;;;;;;;0.17;0.17;;;;;;;5.96;56.16;99703.87;4377082;32;33150;-83
2023/01/31 04:00:58;;;;;;;0.00;0.00;;;;;;;5.84;56.60;99699.78;4377023;32;33008;-83
2023/01/31 04:03:29;;;;;;;0.00;0.00;;;;;;;6.07;55.87;99696.59;4375301;32;33661;-82
2023/01/31 04:05:57;;;;;;;0.00;0.00;;;;;;;5.97;56.35;99713.47;4390078;32;34471;-83
2023/01/31 04:08:25;;;;;;;0.00;0.00;;;;;;;6.07;56.11;99713.16;4382267;32;33638;-82
2023/01/31 04:10:53;;;;;;;0.00;0.00;;;;;;;6.14;55.93;99724.38;4378449;32;31910;-82
2023/01/31 04:13:21;;;;;;;0.00;0.00;;;;;;;5.79;56.71;99720.88;4384619;32;32590;-82
2023/01/31 04:15:49;;;;;;;0.00;0.00;;;;;;;5.86;57.05;99714.56;4380683;32;32947;-82
2023/01/31 04:18:17;;;;;;;0.00;0.00;;;;;;;5.71;57.64;99720.22;4383797;32;33416;-82
2023/01/31 04:20:44;;;;;;;0.20;0.20;;;;;;;5.47;58.93;99721.69;4391312;32;34390;-82
2023/01/31 04:23:12;;;;;;;0.00;0.00;;;;;;;5.81;58.01;99724.31;4369759;32;34257;-83
2023/01/31 04:25:39;;;;;;;0.00;0.00;;;;;;;5.58;58.89;99731.88;4369977;32;33789;-84
2023/01/31 04:28:07;;;;;;;0.00;0.00;;;;;;;5.77;58.54;99746.25;4371781;32;34219;-85
2023/01/31 04:30:35;;;;;;;0.00;0.00;;;;;;;5.83;58.37;99738.22;4371775;32;33514;-84
2023/01/31 04:33:03;;;;;;;0.37;0.37;;;;;;;5.89;58.13;99732.84;4390528;32;34125;-84
2023/01/31 04:35:30;;;;;;;0.00;0.00;;;;;;;5.90;58.11;99731.09;4376201;32;34441;-84
2023/01/31 04:37:58;;;;;;;0.00;0.00;;;;;;;5.88;58.39;99738.97;4359106;32;33921;-84
2023/01/31 04:40:26;;;;;;;0.68;0.43;;;;;;;5.47;59.86;99747.88;4394243;32;33381;-84
2023/01/31 04:42:54;;;;;;;1.15;0.90;;;;;;;5.74;59.13;99748.94;4380857;32;34632;-84
2023/01/31 04:45:22;;;;;;;0.47;0.47;;;;;;;6.05;58.10;99753.44;4377598;32;33252;-84
2023/01/31 04:47:49;;;;;;;0.00;0.00;;;;;;;5.48;59.45;99761.81;4373470;32;34401;-83
2023/01/31 04:50:17;;;;;;;0.00;0.00;;;;;;;5.57;59.99;99759.84;4378809;32;33525;-84
2023/01/31 04:52:48;;;;;;;0.00;0.00;;;;;;;5.82;59.08;99764.47;4383184;32;33587;-85
2023/01/31 04:55:16;;;;;;;0.00;0.00;;;;;;;5.84;59.16;99776.66;4371743;32;33441;-85
2023/01/31 04:57:45;;;;;;;0.03;0.03;;;;;;;5.17;62.74;99770.34;4390544;32;33483;-85
2023/01/31 05:00:13;;;;;;;0.00;0.00;;;;;;;5.37;63.67;99778.66;4370857;32;32981;-85
2023/01/31 05:02:40;;;;;;;0.00;0.00;;;;;;;4.92;66.42;99763.94;4358465;32;33036;-85
2023/01/31 05:05:08;;;;;;;0.00;0.00;;;;;;;5.33;65.35;99771.75;4384008;32;34820;-85
2023/01/31 05:07:37;;;;;;;0.00;0.00;;;;;;;5.37;65.59;99751.59;4384879;32;33776;-85
2023/01/31 05:10:05;;;;;;;0.00;0.00;;;;;;;5.34;65.80;99763.00;4378215;32;32682;-85
2023/01/31 05:12:34;;;;;;;0.00;0.00;;;;;;;5.63;64.77;99764.06;4370095;32;32527;-85
2023/01/31 05:15:03;;;;;;;0.00;0.00;;;;;;;5.57;65.01;99766.84;4371028;32;34009;-85
2023/01/31 05:17:31;;;;;;;0.00;0.00;;;;;;;5.00;66.85;99778.59;4354549;32;33461;-85
2023/01/31 05:19:59;;;;;;;0.00;0.00;;;;;;;4.74;67.84;99773.88;4350306;32;32921;-85
2023/01/31 05:22:26;;;;;;;0.05;0.05;;;;;;;5.24;66.10;99771.97;4358281;32;32688;-85
2023/01/31 05:24:54;;;;;;;0.28;0.28;;;;;;;5.40;65.57;99777.69;4367190;32;33666;-85
2023/01/31 05:27:25;;;;;;;0.00;0.00;;;;;;;5.43;65.33;99785.50;4369640;32;34189;-85
2023/01/31 05:29:53;;;;;;;0.00;0.00;;;;;;;5.67;64.45;99786.66;4368113;32;33437;-85
2023/01/31 05:32:22;;;;;;;0.28;0.28;;;;;;;5.12;66.22;99780.94;4368572;32;33826;-84
2023/01/31 05:34:50;;;;;;;0.00;0.00;;;;;;;5.60;64.42;99787.69;4365925;32;33850;-83
2023/01/31 05:37:18;;;;;;;0.40;0.40;;;;;;;5.01;65.95;99789.91;4380393;32;34461;-83
2023/01/31 05:39:45;;;;;;;0.00;0.00;;;;;;;5.11;65.68;99786.19;4343215;32;32400;-83
2023/01/31 05:42:13;;;;;;;0.00;0.00;;;;;;;4.97;66.29;99788.25;4362368;32;34108;-83
2023/01/31 05:44:40;;;;;;;0.00;0.00;;;;;;;5.39;64.66;99789.06;4345127;32;33417;-83
2023/01/31 05:47:08;;;;;;;0.00;0.00;;;;;;;5.27;64.76;99803.31;4378964;32;34749;-85
2023/01/31 05:49:36;;;;;;;0.40;0.40;;;;;;;5.47;64.25;99802.00;4366165;32;33570;-86
2023/01/31 05:52:04;;;;;;;0.45;0.45;;;;;;;5.68;63.18;99804.09;4354104;32;32887;-86
2023/01/31 05:54:31;;;;;;;0.00;0.00;;;;;;;5.67;62.98;99814.62;4354480;32;32973;-86
2023/01/31 05:57:00;;;;;;;3.47;1.67;;;;;;;5.59;62.47;99810.41;4364256;32;33008;-86
2023/01/31 05:59:30;;;;;;;0.00;0.00;;;;;;;5.55;62.75;99819.25;4376651;32;33504;-85
2023/01/31 06:01:57;;;;;;;0.03;0.03;;;;;;;5.42;62.98;99816.97;4360934;32;33684;-84
2023/01/31 06:04:26;;;;;;;0.00;0.00;;;;;;;5.66;62.15;99819.00;4372668;32;33787;-85
2023/01/31 06:06:53;;;;;;;0.00;0.00;;;;;;;5.58;61.73;99816.56;4343133;32;33314;-85
2023/01/31 06:09:21;;;;;;;0.15;0.15;;;;;;;5.63;61.87;99819.94;4366000;32;32625;-86
2023/01/31 06:11:49;;;;;;;0.00;0.00;;;;;;;5.03;63.16;99835.22;4361515;32;33933;-85
2023/01/31 06:14:17;;;;;;;0.00;0.00;;;;;;;5.34;62.10;99830.22;4363481;32;32979;-85
2023/01/31 06:16:44;;;;;;;0.00;0.00;;;;;;;5.74;60.48;99824.91;4375296;32;35311;-85
2023/01/31 06:19:12;;;;;;;0.00;0.00;;;;;;;5.34;61.71;99832.81;4363104;32;33154;-86
2023/01/31 06:21:40;;;;;;;0.00;0.00;;;;;;;5.56;60.67;99833.22;4374206;32;34281;-83
2023/01/31 06:24:08;;;;;;;0.00;0.00;;;;;;;5.56;59.15;99841.94;4375181;32;33567;-84
2023/01/31 06:26:36;;;;;;;5.37;1.12;;;;;;;5.60;58.90;99850.56;4390382;32;33776;-84
2023/01/31 06:29:04;;;;;;;0.00;0.00;;;;;;;5.22;60.53;99856.63;4369427;32;32587;-83
2023/01/31 06:31:31;;;;;;;0.00;0.00;;;;;;;5.05;59.80;99860.47;4392932;32;33432;-83
2023/01/31 06:34:00;;;;;;;0.10;0.10;;;;;;;5.49;59.08;99860.44;4391154;32;33020;-84
2023/01/31 06:36:29;;;;;;;0.00;0.00;;;;;;;5.30;59.54;99855.59;4376957;32;34840;-84
2023/01/31 06:38:58;;;;;;;0.00;0.00;;;;;;;5.56;58.71;99867.28;4365314;32;32203;-87
2023/01/31 06:41:26;;;;;;;0.98;0.98;;;;;;;5.10;59.71;99873.47;4366848;32;32993;-87
2023/01/31 06:43:56;;;;;;;0.35;0.35;;;;;;;5.57;58.60;99869.00;4363838;32;33937;-87
2023/01/31 06:46:24;;;;;;;0.00;0.00;;;;;;;5.53;58.35;99872.56;4364716;32;33220;-86
2023/01/31 06:48:52;;;;;;;0.00;0.00;;;;;;;5.36;59.00;99881.66;4376957;32;32524;-86
2023/01/31 06:51:19;;;;;;;0.00;0.00;;;;;;;5.58;58.58;99883.81;4362569;32;33709;-87
2023/01/31 06:53:47;;;;;;;0.00;0.00;;;;;;;5.69;58.17;99889.66;4374203;32;33897;-87
2023/01/31 06:56:15;;;;;;;0.00;0.00;;;;;;;5.77;57.93;99899.97;4362870;32;33990;-87
2023/01/31 06:58:43;;;;;;;7.03;1.35;;;;;;;5.63;57.61;99895.91;4375293;32;34377;-87
2023/01/31 07:01:12;;;;;;;0.17;0.10;;;;;;;5.68;57.88;99902.78;4373961;32;35004;-87
2023/01/31 07:03:41;;;;;;;0.20;0.20;;;;;;;6.00;56.53;99899.47;4375882;32;33889;-87
2023/01/31 07:06:09;;;;;;;0.00;0.00;;;;;;;5.73;57.34;99899.19;4378516;32;33158;-87
2023/01/31 07:08:37;;;;;;;0.10;0.10;;;;;;;5.88;56.28;99911.91;4375853;32;34366;-87
2023/01/31 07:11:05;;;;;;;0.00;0.00;;;;;;;5.96;56.17;99903.94;4389220;32;32656;-87
2023/01/31 07:13:33;;;;;;;0.25;0.25;;;;;;;5.72;57.17;99909.69;4351601;32;33599;-87
2023/01/31 07:16:01;;;;;;;0.52;0.52;;;;;;;5.88;56.61;99917.16;4381860;32;32700;-87
2023/01/31 07:18:29;;;;;;;0.82;0.82;;;;;;;5.72;57.42;99915.78;4362828;32;33723;-87
2023/01/31 07:21:00;;;;;;;0.00;0.00;;;;;;;5.57;57.70;99927.47;4363464;32;34206;-87
2023/01/31 07:23:28;;;;;;;0.00;0.00;;;;;;;5.51;58.07;99926.75;4353216;32;33231;-87
2023/01/31 07:26:04;;;;;;;0.00;0.00;;;;;;;5.75;57.69;99920.97;4352100;32;34543;-87
2023/01/31 07:28:31;;;;;;;0.00;0.00;;;;;;;5.99;57.02;99923.97;4378452;32;33944;-87
2023/01/31 07:31:10;;;;;;;0.00;0.00;;;;;;;5.97;57.04;99928.38;4375551;32;34498;-86
2023/01/31 07:33:38;;;;;;;0.30;0.30;;;;;;;6.16;56.59;99927.91;4373303;32;34641;-87
2023/01/31 07:36:14;;;;;;;0.00;0.00;;;;;;;6.22;56.42;99929.53;4373331;32;33900;-87
2023/01/31 07:38:51;;;;;;;0.00;0.00;;;;;;;6.37;55.93;99931.78;4375104;32;33429;-87
2023/01/31 07:41:27;;;;;;;0.00;0.00;;;;;;;6.12;56.35;99939.37;4366271;32;33562;-88
2023/01/31 07:44:29;;;;;;;0.00;0.00;;;;;;;5.82;56.78;99951.38;4363426;32;34138;-89
2023/01/31 07:47:41;;;;;;;0.00;0.00;;;;;;;6.06;56.28;99955.25;4368625;32;34338;-88
2023/01/31 07:58:10;;;;;;;0.00;0.00;;;;;;;6.59;54.99;99947.84;4323907;33;35522;-88
2023/01/31 08:04:25;;;;;;;;;;;;;;;;;;;;;
2023/01/31 08:07:38;;;;;;;0.00;0.00;;;;;;;6.10;56.83;99964.75;4194545;33;3638407;-89
2023/01/31 08:10:52;;;;;;;0.68;0.52;;;;;;;6.34;55.95;99972.97;4267111;33;34656;-89
2023/01/31 08:17:17;;;;;;;0.00;0.00;;;;;;;6.76;54.50;99973.66;4282916;33;33481;-89
2023/01/31 08:20:10;;;;;;;0.52;0.52;;;;;;;6.86;54.38;99977.78;4272194;33;35234;-87
2023/01/31 08:22:40;;;;;;;0.47;0.32;;;;;;;7.36;53.41;99985.22;4279784;33;34320;-86
2023/01/31 08:25:12;;;;;;;0.22;0.22;;;;;;;7.02;54.00;99987.88;4332120;33;32174;-88
2023/01/31 08:27:42;;;;;;;0.00;0.00;;;;;;;7.25;53.51;99990.75;4341315;32;32577;-86
2023/01/31 08:30:15;;;;;;;0.00;0.00;;;;;;;7.09;53.60;100010.47;4343427;33;32842;-85
2023/01/31 08:32:44;;;;;;;;;;;;;;;7.41;52.91;100013.09;4333757;33;32836;-86
2023/01/31 08:35:12;;;;;;;0.05;0.05;;;;;;;7.20;53.36;100013.66;4341498;33;33933;-86
2023/01/31 08:37:42;;;;;;;0.00;0.00;;;;;;;6.77;55.01;100033.13;4344907;33;33121;-85
2023/01/31 08:40:12;;;;;;;0.00;0.00;;;;;;;6.91;54.62;100032.78;4331603;33;33423;-85
2023/01/31 08:42:40;;;;;;;0.00;0.00;;;;;;;6.90;54.78;100038.94;4360203;32;33295;-85
2023/01/31 08:45:13;;;;;;;0.37;0.37;;;;;;;7.24;53.42;100038.94;4346830;32;33913;-85
2023/01/31 08:47:41;;;;;;;1.37;1.27;;;;;;;7.03;53.83;100044.75;4368656;32;33156;-86
2023/01/31 08:50:14;;;;;;;0.00;0.00;;;;;;;7.29;54.22;100044.94;4358022;32;32943;-85
2023/01/31 08:53:07;;;;;;;0.00;0.00;;;;;;;7.71;52.69;100057.81;4352431;32;32966;-85
2023/01/31 08:55:35;;;;;;;0.00;0.00;;;;;;;8.00;51.85;100064.00;4362759;32;33802;-85
2023/01/31 08:58:07;;;;;;;0.08;0.08;;;;;;;7.85;52.22;100060.91;4363148;32;32737;-85
2023/01/31 09:00:36;;;;;;;0.00;0.00;;;;;;;7.90;52.13;100058.16;4350000;32;32535;-85
2023/01/31 09:03:08;;;;;;;0.22;0.20;;;;;;;7.67;52.40;100064.06;4360407;32;32446;-85
2023/01/31 09:05:37;;;;;;;0.57;0.55;;;;;;;7.17;54.90;100072.38;4360485;32;32422;-87
2023/01/31 09:08:06;;;;;;;3.65;1.00;;;;;;;7.46;53.11;100060.25;4335699;32;32998;-86
2023/01/31 09:10:35;;;;;;;0.10;0.10;;;;;;;7.18;53.54;100065.38;4370921;32;32638;-86
2023/01/31 09:13:06;;;;;;;0.00;0.00;;;;;;;7.46;53.44;100072.53;4358391;32;33092;-86
2023/01/31 09:15:39;;;;;;;0.00;0.00;;;;;;;7.40;53.81;100074.41;4368175;32;32103;-86
2023/01/31 09:18:08;;;;;;;0.00;0.00;;;;;;;7.60;53.23;100070.41;4367638;32;35942;-86
2023/01/31 09:20:37;;;;;;;1.37;0.62;;;;;;;7.67;53.08;100075.44;4355470;32;34135;-86
2023/01/31 09:23:06;;;;;;;0.00;0.00;;;;;;;7.54;54.65;100073.16;4356758;32;34201;-86
2023/01/31 09:25:39;;;;;;;0.00;0.00;;;;;;;7.45;54.54;100074.28;4370904;32;34199;-86
2023/01/31 09:28:14;;;;;;;0.00;0.00;;;;;;;7.46;53.78;100086.53;4361232;32;32678;-86
2023/01/31 09:30:46;;;;;;;0.00;0.00;;;;;;;7.38;53.73;100081.47;4370035;32;33512;-86
2023/01/31 09:33:16;;;;;;;0.00;0.00;;;;;;;7.55;53.71;100072.25;4355855;32;34174;-90
2023/01/31 09:36:02;;;;;;;0.05;0.05;;;;;;;7.55;53.43;100074.87;4363565;32;34100;-94
2023/01/31 09:38:36;;;;;;;0.00;0.00;;;;;;;7.37;53.55;100079.75;4359410;32;32697;-87
2023/01/31 09:41:38;;;;;;;0.22;0.15;;;;;;;7.17;54.85;100077.63;4358063;32;32917;-87
2023/01/31 09:44:11;;;;;;;0.00;0.00;;;;;;;7.34;54.32;100071.94;4364925;32;33080;-87
2023/01/31 09:46:44;;;;;;;0.00;0.00;;;;;;;7.22;54.44;100068.78;4373512;32;34218;-87
2023/01/31 09:49:17;;;;;;;0.45;0.40;;;;;;;7.16;55.71;100082.91;4362150;32;33142;-87
2023/01/31 09:51:51;;;;;;;0.00;0.00;;;;;;;7.77;52.95;100085.69;4362316;32;33973;-87
2023/01/31 09:54:27;;;;;;;0.00;0.00;;;;;;;7.87;52.39;100082.75;4372062;32;33557;-87
2023/01/31 09:57:40;;;;;;;0.00;0.00;;;;;;;7.92;51.94;100075.59;4373275;32;33804;-87
2023/01/31 10:00:40;;;;;;;0.00;0.00;;;;;;;7.87;52.46;100068.75;4360975;32;32806;-87
2023/01/31 10:03:24;;;;;;;0.00;0.00;;;;;;;8.02;50.98;100070.06;4349154;32;33114;-87
2023/01/31 10:06:04;;;;;;;0.00;0.00;;;;;;;7.86;49.94;100073.16;4373528;32;33272;-87
2023/01/31 10:08:58;;;;;;;0.20;0.20;;;;;;;7.84;50.08;100074.97;4387802;32;34071;-87
2023/01/31 10:11:34;;;;;;;0.00;0.00;;;;;;;7.58;49.88;100062.53;4385875;32;33049;-89
2023/01/31 10:14:27;;;;;;;0.03;0.03;;;;;;;7.55;49.52;100061.75;4365850;32;35717;-86
2023/01/31 10:17:14;;;;;;;0.15;0.15;;;;;;;7.33;49.28;100056.22;4388016;32;34070;-86
2023/01/31 10:19:56;;;;;;;0.00;0.00;;;;;;;7.17;50.48;100072.38;4380932;32;34716;-86
2023/01/31 10:22:39;;;;;;;0.00;0.00;;;;;;;7.36;49.46;100072.78;4388130;32;34219;-86
2023/01/31 10:25:20;;;;;;;0.00;0.00;;;;;;;7.50;48.60;100061.00;4362749;32;32920;-86
2023/01/31 10:28:10;;;;;;;0.55;0.52;;;;;;;7.35;48.70;100070.16;4359976;32;32599;-86
2023/01/31 10:30:47;;;;;;;0.65;0.43;;;;;;;7.70;48.04;100064.84;4387970;32;33441;-86
2023/01/31 10:33:33;;;;;;;0.00;0.00;;;;;;;7.53;47.96;100074.06;4382054;32;33193;-87
2023/01/31 10:36:17;;;;;;;0.00;0.00;;;;;;;7.74;45.92;100063.00;4373488;32;33017;-86
2023/01/31 10:39:16;;;;;;;0.45;0.45;;;;;;;7.64;45.97;100056.25;4376321;32;35607;-86
2023/01/31 10:42:13;;;;;;;1.77;0.75;;;;;;;7.90;45.96;100037.97;4375352;32;35849;-86
2023/01/31 10:45:01;;;;;;;0.00;0.00;;;;;;;7.90;46.28;100039.75;4372240;32;33443;-86
2023/01/31 10:47:36;;;;;;;0.00;0.00;;;;;;;8.04;45.41;100056.00;4363230;32;31244;-87
2023/01/31 10:50:22;;;;;;;0.00;0.00;;;;;;;7.81;45.64;100053.16;4389204;32;33312;-86
2023/01/31 10:56:36;;;;;;;0.00;0.00;;;;;;;8.08;46.93;100035.72;4375620;32;32031;-86
2023/01/31 10:59:35;;;;;;;0.08;0.08;;;;;;;8.06;46.08;100029.63;4370894;32;33269;-87
2023/01/31 11:02:18;;;;;;;0.00;0.00;;;;;;;7.82;47.19;100031.22;4374574;32;33484;-87
2023/01/31 11:04:50;;;;;;;0.00;0.00;;;;;;;8.21;46.73;100029.16;4376124;32;34074;-86
2023/01/31 11:07:22;;;;;;;;;;;;;;;8.62;45.44;100027.91;4372086;32;32488;-87
2023/01/31 11:09:53;;;;;;;0.00;0.00;;;;;;;8.26;45.78;100027.28;4388339;32;32933;-86
2023/01/31 11:12:39;;;;;;;0.00;0.00;;;;;;;8.61;45.58;100031.47;4359920;32;32673;-85
2023/01/31 11:15:17;;;;;;;0.00;0.00;;;;;;;8.83;45.07;100021.13;4374390;32;33881;-85
2023/01/31 11:17:46;;;;;;;0.28;0.28;;;;;;;8.92;44.14;100027.81;4362685;32;32949;-86
2023/01/31 11:20:45;;;;;;;0.00;0.00;;;;;;;9.13;44.53;100031.53;4387591;32;35028;-86
2023/01/31 11:25:55;;;;;;;0.22;0.22;;;;;;;8.29;44.03;100040.31;4379809;32;33434;-87
2023/01/31 11:28:38;;;;;;;0.00;0.00;;;;;;;8.26;45.22;100045.72;4362192;32;31918;-87
2023/01/31 11:31:18;;;;;;;0.00;0.00;;;;;;;8.21;45.72;100032.69;4372316;32;35189;-87
2023/01/31 11:33:58;;;;;;;0.00;0.00;;;;;;;7.89;47.02;100036.25;4374857;32;34180;-86
2023/01/31 11:36:39;;;;;;;0.57;0.32;;;;;;;8.24;46.10;100039.59;4376711;32;33410;-87
2023/01/31 11:39:25;;;;;;;0.00;0.00;;;;;;;8.28;45.37;100028.09;4379167;32;33521;-87
2023/01/31 11:41:53;;;;;;;0.00;0.00;;;;;;;8.36;46.80;100041.91;4385486;32;33978;-87
2023/01/31 11:44:28;;;;;;;0.00;0.00;;;;;;;8.47;44.57;100023.16;4365045;32;32348;-87
2023/01/31 11:47:06;;;;;;;0.00;0.00;;;;;;;8.46;45.53;100037.22;4373076;32;33862;-87
2023/01/31 11:49:38;;;;;;;2.10;1.27;;;;;;;8.68;43.69;100016.31;4375326;32;32978;-87
2023/01/31 11:52:14;;;;;;;0.00;0.00;;;;;;;8.67;44.92;100014.63;4362016;32;36105;-87
2023/01/31 11:54:50;;;;;;;0.00;0.00;;;;;;;8.37;43.80;100022.59;4389839;32;35143;-86
2023/01/31 11:57:47;;;;;;;0.52;0.52;;;;;;;8.66;43.79;100012.91;4386668;32;34165;-88
2023/01/31 12:00:24;;;;;;;0.13;0.13;;;;;;;8.66;44.98;100013.75;4362021;32;32507;-86
2023/01/31 12:03:05;;;;;;;0.00;0.00;;;;;;;8.91;42.29;100008.53;4390727;32;33190;-85
2023/01/31 12:05:40;;;;;;;0.00;0.00;;;;;;;8.66;43.74;100007.63;4383343;32;33380;-85
2023/01/31 12:08:34;;;;;;;0.00;0.00;;;;;;;8.74;43.40;100016.16;4382150;32;33113;-85
2023/01/31 12:11:36;;;;;;;0.00;0.00;;;;;;;8.81;43.10;100001.84;4394930;32;31111;-85
2023/01/31 12:14:14;;;;;;;0.00;0.00;;;;;;;8.68;43.69;100005.78;4372358;32;33801;-85
2023/01/31 12:16:54;;;;;;;0.00;0.00;;;;;;;8.93;43.83;100012.00;4380232;32;33971;-85
2023/01/31 12:19:29;;;;;;;0.00;0.00;;;;;;;9.00;44.30;100009.16;4384725;32;34176;-85
2023/01/31 12:22:03;;;;;;;0.00;0.00;;;;;;;8.71;45.89;100010.97;4391104;32;33308;-85
2023/01/31 12:25:00;;;;;;;0.00;0.00;;;;;;;9.17;43.76;100014.72;4378412;32;32863;-85
2023/01/31 12:28:00;;;;;;;0.00;0.00;;;;;;;9.00;44.32;100006.50;4383171;32;34797;-85
2023/01/31 12:30:52;;;;;;;0.00;0.00;;;;;;;8.80;45.14;100008.03;4394639;32;33844;-85
2023/01/31 12:33:43;;;;;;;0.00;0.00;;;;;;;8.50;46.10;100020.44;4379401;32;34297;-85
2023/01/31 12:36:38;;;;;;;0.00;0.00;;;;;;;8.60;46.38;100018.38;4390345;32;35582;-85
2023/01/31 12:39:36;;;;;;;0.00;0.00;;;;;;;8.59;46.40;100024.53;4390857;32;33924;-86
2023/01/31 12:42:42;;;;;;;0.00;0.00;;;;;;;8.48;46.13;100030.13;4394766;32;33667;-85
2023/01/31 12:45:29;;;;;;;0.00;0.00;;;;;;;8.40;46.50;100025.12;4365502;32;33179;-85